Time;durP1;ratioP1;P1;durP2;ratioP2;P2;SDS_P1;SDS_P2;PMS_P1;PMS_P2;Temp;Humidity;BMP_temperature;BMP_pressure;BME280_temperature;BME280_humidity;BME280_pressure;Samples;Min_cycle;Max_cycle;Signal;HPM_P1;HPM_P2
2022/01/19 00:01:09;;;;;;;5.45;3.70;;;15.10;61.60;;;;;;5033634;28;20140;-72
2022/01/19 00:03:36;;;;;;;6.97;4.28;;;;;;;;;;5032966;28;20141;-72
2022/01/19 00:06:03;;;;;;;6.75;4.57;;;15.10;65.00;;;;;;5033263;28;20132;-72
2022/01/19 00:08:30;;;;;;;7.45;4.38;;;14.70;66.10;;;;;;5049911;28;20140;-72
2022/01/19 00:10:57;;;;;;;5.75;4.00;;;;;;;;;;5033175;28;20108;-72
2022/01/19 00:13:25;;;;;;;6.72;4.22;;;15.10;66.40;;;;;;5032951;28;20125;-72
2022/01/19 00:15:52;;;;;;;6.05;4.25;;;15.00;66.10;;;;;;5034140;28;20045;-73
2022/01/19 00:18:20;;;;;;;6.88;4.22;;;15.00;58.90;;;;;;5033236;28;20086;-72
2022/01/19 00:20:47;;;;;;;6.22;4.35;;;;;;;;;;5039433;28;20144;-72
2022/01/19 00:23:16;;;;;;;6.82;4.57;;;;;;;;;;5049313;28;20128;-73
2022/01/19 00:25:42;;;;;;;6.72;4.57;;;15.10;66.70;;;;;;5049506;28;20056;-72
2022/01/19 00:28:10;;;;;;;7.97;4.82;;;;;;;;;;5033093;28;20140;-72
2022/01/19 00:30:38;;;;;;;7.68;4.82;;;14.90;66.20;;;;;;5032818;28;20088;-72
2022/01/19 00:33:05;;;;;;;6.75;4.70;;;14.90;66.60;;;;;;5032798;28;20137;-73
2022/01/19 00:35:35;;;;;;;6.82;4.88;;;14.90;66.20;;;;;;5036072;28;20371;-72
2022/01/19 00:38:02;;;;;;;8.95;5.30;;;;;;;;;;5052762;28;20059;-71
2022/01/19 00:40:28;;;;;;;8.93;5.35;;;14.80;66.50;;;;;;5052716;28;20521;-73
2022/01/19 00:42:55;;;;;;;8.00;5.35;;;14.90;62.90;;;;;;5052026;28;20124;-73
2022/01/19 00:45:22;;;;;;;6.53;4.75;;;;;;;;;;5052264;28;20140;-73
2022/01/19 00:47:51;;;;;;;6.75;5.13;;;14.90;60.80;;;;;;5052407;28;20057;-73
2022/01/19 00:50:19;;;;;;;7.57;5.00;;;14.70;66.60;;;;;;5052333;28;20088;-72
2022/01/19 00:52:45;;;;;;;8.77;5.13;;;14.80;66.70;;;;;;5052094;28;20132;-73
2022/01/19 00:55:13;;;;;;;9.15;5.60;;;;;;;;;;5052410;28;20570;-72
2022/01/19 00:57:39;;;;;;;7.35;4.95;;;14.70;66.50;;;;;;5052202;28;20088;-73
2022/01/19 01:00:08;;;;;;;9.35;5.35;;;14.80;62.70;;;;;;5052404;28;20169;-73
2022/01/19 01:02:35;;;;;;;9.00;5.38;;;14.70;66.70;;;;;;5051829;28;20151;-73
2022/01/19 01:05:03;;;;;;;6.93;4.60;;;14.30;66.40;;;;;;5053403;28;20566;-73
2022/01/19 01:07:33;;;;;;;8.68;4.95;;;14.70;66.60;;;;;;5051872;28;20711;-73
2022/01/19 01:09:59;;;;;;;7.95;5.32;;;14.70;66.60;;;;;;5051893;28;20135;-73
2022/01/19 01:12:32;;;;;;;7.35;5.10;;;;;;;;;;5051736;28;20562;-72
2022/01/19 01:20:29;;;;;;;9.68;5.50;;;14.10;66.30;;;;;;5044280;28;20045;-72
2022/01/19 01:22:55;;;;;;;8.25;5.45;;;14.60;66.70;;;;;;5051656;28;20140;-73
2022/01/19 01:25:22;;;;;;;8.23;4.90;;;;;;;;;;5050407;28;20127;-72
2022/01/19 01:27:49;;;;;;;7.85;5.30;;;14.70;66.90;;;;;;5032907;28;20520;-72
2022/01/19 01:30:16;;;;;;;8.30;5.05;;;14.50;66.70;;;;;;5031776;28;20140;-73
2022/01/19 01:32:43;;;;;;;8.13;5.45;;;;;;;;;;5043763;28;20152;-72
2022/01/19 01:35:10;;;;;;;8.23;5.70;;;14.50;66.60;;;;;;5051399;28;20133;-72
2022/01/19 01:37:38;;;;;;;9.90;5.25;;;14.50;59.20;;;;;;5051244;28;20139;-72
2022/01/19 01:40:08;;;;;;;8.25;5.00;;;14.60;59.20;;;;;;5051479;28;20056;-72
2022/01/19 01:42:35;;;;;;;9.48;5.07;;;;;;;;;;5051489;28;20052;-73
2022/01/19 01:45:02;;;;;;;8.15;5.38;;;14.30;66.80;;;;;;5051465;28;20053;-73
2022/01/19 01:47:30;;;;;;;9.13;5.35;;;;;;;;;;5050931;28;20102;-72
2022/01/19 01:55:27;;;;;;;8.65;5.65;;;14.40;67.00;;;;;;5052147;28;20048;-73
2022/01/19 01:57:54;;;;;;;9.68;6.22;;;14.10;63.10;;;;;;5051335;28;20135;-73
2022/01/19 02:00:23;;;;;;;9.13;5.22;;;14.50;67.00;;;;;;5050958;28;20095;-73
2022/01/19 02:02:49;;;;;;;9.57;5.25;;;14.50;66.90;;;;;;5050779;28;20072;-73
2022/01/19 02:05:16;;;;;;;7.90;5.53;;;14.50;62.10;;;;;;5051025;28;20520;-72
2022/01/19 02:07:49;;;;;;;8.43;5.45;;;14.50;62.90;;;;;;5050631;28;20122;-73
2022/01/19 02:10:31;;;;;;;8.07;5.57;;;;;;;;;;5050784;28;20088;-72
2022/01/19 02:15:54;;;;;;;8.80;5.30;;;14.60;66.80;;;;;;5050750;28;20053;-73
2022/01/19 02:23:54;;;;;;;;;;;14.40;59.70;;;;;;5051065;28;20091;-72
2022/01/19 02:26:27;;;;;;;7.55;5.07;;;;;;;;;;5041364;28;19971;-72
2022/01/19 02:29:05;;;;;;;7.35;4.65;;;14.30;66.80;;;;;;5030862;28;20834;-73
2022/01/19 02:36:32;;;;;;;10.00;5.60;;;14.50;67.10;;;;;;5030806;28;20184;-73
2022/01/19 02:40:14;;;;;;;9.32;5.07;;;14.30;60.60;;;;;;5030877;28;20062;-73
2022/01/19 02:42:55;;;;;;;7.57;4.95;;;14.10;63.50;;;;;;5030525;28;20063;-73
2022/01/19 02:50:51;;;;;;;9.05;5.15;;;14.50;61.00;;;;;;5030736;28;20049;-72
2022/01/19 02:53:19;;;;;;;8.93;5.22;;;14.40;66.90;;;;;;5031544;28;20465;-73
2022/01/19 02:55:46;;;;;;;8.60;4.75;;;14.40;66.90;;;;;;5030242;28;20136;-72
2022/01/19 02:58:17;;;;;;;7.05;4.80;;;14.50;66.70;;;;;;5030682;28;20081;-73
2022/01/19 03:08:43;;;;;;;7.88;4.95;;;;;;;;;;5034055;28;20095;-73
2022/01/19 03:09:27;;;;;;;9.30;4.57;;;14.40;66.90;;;;;;5033901;28;20060;-73
2022/01/19 03:11:54;;;;;;;7.25;4.70;;;14.00;62.10;;;;;;5034493;28;20054;-72
2022/01/19 03:14:20;;;;;;;7.75;4.68;;;14.40;66.80;;;;;;5034407;28;20137;-72
2022/01/19 03:16:47;;;;;;;8.30;4.78;;;14.10;62.30;;;;;;5033873;28;20140;-73
2022/01/19 03:19:14;;;;;;;8.25;4.78;;;;;;;;;;5034079;28;20115;-72
2022/01/19 03:21:41;;;;;;;7.75;4.55;;;14.40;66.60;;;;;;5047061;28;20447;-70
2022/01/19 03:24:10;;;;;;;7.65;4.50;;;14.50;60.30;;;;;;5054049;28;20077;-69
2022/01/19 03:26:39;;;;;;;5.57;4.05;;;14.50;66.70;;;;;;5042506;28;20065;-70
2022/01/19 03:29:07;;;;;;;6.87;3.95;;;;;;;;;;4210393;28;10001118;-69
2022/01/19 03:31:34;;;;;;;8.90;4.00;;;;;;;;;;5029694;28;20136;-68
2022/01/19 03:34:16;;;;;;;5.62;3.98;;;14.60;58.70;;;;;;4677284;28;10001187;-69
2022/01/19 03:36:43;;;;;;;6.97;4.40;;;14.50;66.20;;;;;;5030146;28;20060;-69
2022/01/19 03:39:10;;;;;;;5.88;3.78;;;14.50;59.30;;;;;;5034017;28;20141;-69
2022/01/19 03:41:38;;;;;;;8.32;4.32;;;14.60;66.10;;;;;;5034666;28;20496;-69
2022/01/19 03:44:05;;;;;;;6.20;4.15;;;14.60;66.30;;;;;;5035098;28;20053;-69
2022/01/19 03:46:34;;;;;;;6.07;3.83;;;;;;;;;;5033520;28;20065;-68
2022/01/19 03:49:10;;;;;;;6.18;3.83;;;14.50;66.00;;;;;;5053881;28;20060;-69
2022/01/19 03:51:37;;;;;;;5.57;3.60;;;15.50;61.10;;;;;;5054906;28;20084;-69
2022/01/19 03:54:04;;;;;;;7.05;3.92;;;14.60;66.10;;;;;;5054676;28;20049;-69
2022/01/19 03:56:31;;;;;;;6.18;3.53;;;;;;;;;;5054500;28;20128;-68
2022/01/19 03:58:59;;;;;;;6.82;3.55;;;14.30;66.00;;;;;;5054418;28;20049;-70
2022/01/19 04:01:26;;;;;;;7.03;3.70;;;14.50;65.90;;;;;;5053747;28;20040;-69
2022/01/19 04:06:53;;;;;;;6.97;3.63;;;14.70;65.90;;;;;;5051459;28;20126;-69
2022/01/19 04:09:20;;;;;;;5.45;3.67;;;14.40;66.00;;;;;;5053445;28;20056;-70
2022/01/19 04:11:47;;;;;;;5.72;3.38;;;;;;;;;;5054507;28;20128;-70
2022/01/19 04:14:25;;;;;;;5.47;3.60;;;14.60;65.40;;;;;;5054216;28;20068;-69
2022/01/19 04:16:52;;;;;;;5.95;3.90;;;14.60;66.10;;;;;;5052082;28;20061;-69
2022/01/19 04:19:26;;;;;;;6.60;3.60;;;;;;;;;;5052713;28;20053;-70
2022/01/19 04:21:53;;;;;;;5.03;3.60;;;14.60;65.90;;;;;;5032598;28;20068;-70
2022/01/19 04:24:20;;;;;;;5.68;3.40;;;14.70;66.10;;;;;;5037009;28;20040;-69
2022/01/19 04:26:56;;;;;;;6.88;3.60;;;14.10;65.60;;;;;;5039534;28;20133;-70
2022/01/19 04:29:25;;;;;;;6.55;3.70;;;14.60;58.20;;;;;;5033233;28;20506;-68
2022/01/19 04:31:52;;;;;;;6.38;3.50;;;;;;;;;;5033021;28;20140;-69
2022/01/19 04:34:19;;;;;;;5.95;3.28;;;14.70;65.80;;;;;;5034019;28;20128;-69
2022/01/19 04:37:21;;;;;;;5.45;3.20;;;14.70;65.60;;;;;;5034125;28;20083;-69
2022/01/19 04:48:37;;;;;;;7.18;3.90;;;;;;;;;;5011541;28;20411;-68
2022/01/19 05:02:30;;;;;;;6.55;4.00;;;14.60;58.10;;;;;;5015600;28;20053;-69
2022/01/19 05:05:08;;;;;;;5.87;3.60;;;;;;;;;;5048880;28;20049;-70
2022/01/19 05:07:39;;;;;;;5.75;3.70;;;14.00;65.40;;;;;;5053279;28;20053;-70
2022/01/19 05:13:24;;;;;;;5.75;3.72;;;14.60;58.10;;;;;;5053385;28;20118;-69
2022/01/19 05:15:46;;;;;;;5.30;3.47;;;14.60;65.70;;;;;;5051578;28;20307;-70
2022/01/19 05:18:14;;;;;;;6.22;3.75;;;14.60;58.00;;;;;;5053143;28;20484;-70
2022/01/19 05:20:41;;;;;;;5.53;3.60;;;;;;;;;;5045414;28;20141;-70
2022/01/19 05:23:08;;;;;;;5.90;3.85;;;14.60;65.60;;;;;;5053125;28;20044;-70
2022/01/19 05:25:34;;;;;;;6.50;3.42;;;14.60;65.80;;;;;;5050097;28;20132;-70
2022/01/19 05:28:01;;;;;;;5.25;3.80;;;14.70;62.00;;;;;;5031991;28;20197;-70
2022/01/19 05:30:28;;;;;;;4.63;3.53;;;14.20;65.50;;;;;;5031970;28;20144;-70
2022/01/19 05:32:55;;;;;;;5.07;3.67;;;14.30;65.60;;;;;;5032862;28;20140;-70
2022/01/19 05:35:24;;;;;;;5.70;3.70;;;14.70;60.30;;;;;;5031600;28;20049;-70
2022/01/19 05:37:51;;;;;;;4.85;3.60;;;14.70;59.10;;;;;;5032819;28;20128;-70
2022/01/19 05:40:18;;;;;;;6.30;4.20;;;14.70;62.30;;;;;;5031565;28;20057;-69
2022/01/19 05:42:46;;;;;;;5.55;4.15;;;14.60;65.60;;;;;;5031385;28;20064;-70
2022/01/19 05:45:13;;;;;;;4.88;3.67;;;14.70;65.50;;;;;;5032616;28;20042;-70
2022/01/19 05:47:40;;;;;;;5.15;3.72;;;14.70;64.00;;;;;;5031075;28;20133;-70
2022/01/19 05:50:07;;;;;;;6.50;4.00;;;14.30;65.40;;;;;;5032742;28;20053;-70
2022/01/19 05:52:35;;;;;;;4.72;3.60;;;15.40;58.20;;;;;;5031475;28;20140;-69
2022/01/19 05:55:02;;;;;;;5.90;4.03;;;14.70;65.60;;;;;;5032556;28;20140;-70
2022/01/19 05:57:29;;;;;;;5.40;3.67;;;14.70;61.30;;;;;;5031791;28;20521;-70
2022/01/19 05:59:56;;;;;;;6.38;3.78;;;;;;;;;;5031872;28;20116;-69
2022/01/19 06:02:23;;;;;;;5.45;3.92;;;14.80;65.50;;;;;;5031526;28;20046;-70
2022/01/19 06:04:50;;;;;;;6.20;3.70;;;14.70;65.20;;;;;;5030219;28;20052;-70
2022/01/19 06:07:17;;;;;;;5.50;4.20;;;14.80;65.40;;;;;;5031489;28;20049;-70
2022/01/19 06:10:01;;;;;;;4.70;3.78;;;14.70;65.20;;;;;;5031477;28;20088;-70
2022/01/19 06:12:28;;;;;;;5.68;4.20;;;14.10;65.10;;;;;;5032156;28;20057;-70
2022/01/19 06:14:55;;;;;;;5.30;3.83;;;14.70;62.50;;;;;;5030973;28;20128;-70
2022/01/19 06:17:21;;;;;;;5.85;3.95;;;14.80;65.20;;;;;;5038974;28;20057;-70
2022/01/19 06:19:48;;;;;;;6.22;4.55;;;;;;;;;;5047651;28;20138;-69
2022/01/19 06:22:17;;;;;;;6.05;4.63;;;14.80;65.10;;;;;;5064993;28;20144;-70
2022/01/19 06:24:45;;;;;;;5.93;4.00;;;14.70;65.10;;;;;;5050772;28;20136;-70
2022/01/19 06:27:11;;;;;;;6.45;4.30;;;14.70;65.20;;;;;;5034546;28;20131;-70
2022/01/19 06:29:39;;;;;;;6.82;4.47;;;;;;;;;;5043181;28;20063;-69
2022/01/19 06:32:06;;;;;;;6.10;4.35;;;14.70;65.30;;;;;;5042497;28;20494;-70
2022/01/19 06:34:33;;;;;;;6.28;4.45;;;;;;;;;;5030836;28;20136;-70
2022/01/19 06:36:59;;;;;;;8.68;5.32;;;14.40;65.30;;;;;;5030430;28;20133;-71
2022/01/19 06:39:26;;;;;;;7.40;4.95;;;14.80;65.50;;;;;;5030477;28;20589;-71
2022/01/19 06:41:54;;;;;;;10.25;5.40;;;14.70;57.60;;;;;;5030835;28;20092;-71
2022/01/19 06:44:21;;;;;;;8.13;4.53;;;;;;;;;;5030612;28;20133;-71
2022/01/19 06:46:48;;;;;;;7.25;4.70;;;14.90;65.50;;;;;;5031527;28;20136;-71
2022/01/19 06:49:15;;;;;;;6.70;4.10;;;;;;;;;;5031730;28;20128;-71
2022/01/19 06:51:42;;;;;;;7.78;4.78;;;14.90;65.50;;;;;;5030920;28;20605;-71
2022/01/19 06:54:09;;;;;;;8.38;5.15;;;14.90;65.10;;;;;;5036990;28;20121;-71
2022/01/19 06:56:37;;;;;;;9.38;5.40;;;14.90;65.40;;;;;;5050497;28;20132;-71
2022/01/19 06:59:06;;;;;;;14.98;8.95;;;14.90;65.20;;;;;;5051397;28;20243;-71
2022/01/19 07:01:33;;;;;;;19.10;11.43;;;15.00;65.20;;;;;;5050401;28;20060;-71
2022/01/19 07:04:00;;;;;;;17.02;9.95;;;14.70;64.70;;;;;;5050290;28;20087;-72
2022/01/19 07:06:27;;;;;;;14.18;8.90;;;15.60;65.20;;;;;;5050439;28;20080;-71
2022/01/19 07:08:54;;;;;;;11.82;8.60;;;;;;;;;;5050000;28;20139;-71
2022/01/19 07:11:21;;;;;;;15.30;7.75;;;14.80;65.00;;;;;;5050612;28;20140;-70
2022/01/19 07:13:48;;;;;;;12.82;6.63;;;;;;;;;;5041670;28;20045;-70
2022/01/19 07:16:17;;;;;;;12.75;6.93;;;15.10;64.90;;;;;;5031388;28;20136;-71
2022/01/19 07:18:44;;;;;;;8.85;6.22;;;;;;;;;;5030516;28;20057;-70
2022/01/19 07:21:11;;;;;;;11.38;6.72;;;15.00;65.00;;;;;;5036522;28;20140;-71
2022/01/19 07:23:37;;;;;;;11.13;6.95;;;15.10;65.10;;;;;;5030558;28;20087;-71
2022/01/19 07:26:04;;;;;;;10.90;6.80;;;14.70;62.20;;;;;;5031007;28;20037;-71
2022/01/19 07:28:31;;;;;;;10.45;6.28;;;14.80;64.90;;;;;;5031759;28;20132;-71
2022/01/19 07:30:57;;;;;;;9.57;6.05;;;15.70;65.00;;;;;;5029972;28;20144;-71
2022/01/19 07:33:25;;;;;;;11.68;6.50;;;14.60;58.70;;;;;;5030296;28;20063;-70
2022/01/19 07:35:53;;;;;;;10.90;6.00;;;15.20;63.30;;;;;;5030039;28;20057;-70
2022/01/19 07:38:19;;;;;;;8.43;5.80;;;15.00;64.70;;;;;;5030523;28;20061;-71
2022/01/19 07:40:46;;;;;;;6.80;5.15;;;;;;;;;;5029975;28;20136;-70
2022/01/19 07:43:13;;;;;;;10.93;5.75;;;15.10;64.60;;;;;;5031324;28;20052;-71
2022/01/19 07:45:40;;;;;;;10.13;5.50;;;15.10;64.90;;;;;;5029489;28;20049;-71
2022/01/19 07:48:07;;;;;;;10.35;5.57;;;15.10;60.80;;;;;;5031442;28;20084;-71
2022/01/19 07:50:35;;;;;;;8.75;4.93;;;15.10;64.50;;;;;;5030158;28;20140;-71
2022/01/19 07:53:02;;;;;;;11.15;5.55;;;15.10;64.60;;;;;;5033192;28;20144;-71
2022/01/19 07:55:29;;;;;;;10.55;5.32;;;;;;;;;;5034695;28;20121;-71
2022/01/19 07:57:56;;;;;;;7.95;5.53;;;14.40;64.10;;;;;;5033416;28;20059;-71
2022/01/19 08:00:22;;;;;;;8.00;5.10;;;15.10;64.80;;;;;;5033507;28;20088;-71
2022/01/19 08:02:50;;;;;;;7.95;4.85;;;15.10;64.40;;;;;;5033242;28;20092;-71
2022/01/19 08:05:16;;;;;;;8.63;5.22;;;15.10;64.70;;;;;;5033337;28;20053;-71
2022/01/19 08:07:45;;;;;;;8.40;5.10;;;14.80;60.10;;;;;;5033012;28;20140;-70
2022/01/19 08:10:12;;;;;;;7.47;5.03;;;15.10;62.10;;;;;;5044379;28;20143;-72
2022/01/19 08:12:38;;;;;;;7.10;4.60;;;15.20;59.90;;;;;;5053133;28;20139;-72
2022/01/19 08:15:06;;;;;;;7.97;4.75;;;15.20;57.20;;;;;;5044850;28;20075;-68
2022/01/19 08:17:33;;;;;;;7.00;4.72;;;14.90;64.60;;;;;;5032899;28;20059;-70
2022/01/19 08:20:00;;;;;;;6.47;4.57;;;14.60;61.80;;;;;;5040623;28;20048;-70
2022/01/19 08:22:27;;;;;;;7.38;4.90;;;;;;;;;;5032940;28;20140;-70
2022/01/19 08:24:55;;;;;;;9.38;4.32;;;15.30;57.30;;;;;;5049584;28;20121;-70
2022/01/19 08:27:22;;;;;;;7.85;4.45;;;15.50;62.70;;;;;;5047029;28;20053;-70
2022/01/19 08:29:49;;;;;;;7.18;4.28;;;;;;;;;;5038573;28;20469;-70
2022/01/19 08:32:16;;;;;;;5.90;3.95;;;;;;;;;;5043875;28;20132;-70
2022/01/19 08:34:42;;;;;;;6.97;4.60;;;15.50;64.70;;;;;;5038022;28;20081;-70
2022/01/19 08:37:14;;;;;;;5.28;4.13;;;16.10;64.70;;;;;;5047868;28;20425;-70
2022/01/19 08:39:41;;;;;;;6.68;4.20;;;;;;;;;;5043659;28;20376;-70
2022/01/19 08:42:10;;;;;;;5.25;4.10;;;15.40;64.20;;;;;;5042617;28;20069;-70
2022/01/19 08:44:37;;;;;;;5.57;3.90;;;14.80;64.30;;;;;;5042535;28;20056;-71
2022/01/19 08:47:04;;;;;;;6.15;4.22;;;15.40;64.60;;;;;;5039337;28;20124;-70
2022/01/19 08:49:31;;;;;;;5.40;4.07;;;14.80;64.00;;;;;;5032506;28;20053;-70
2022/01/19 08:51:58;;;;;;;6.57;4.00;;;;;;;;;;5039285;28;20059;-70
2022/01/19 08:54:25;;;;;;;8.60;4.47;;;15.50;64.30;;;;;;5042456;28;20060;-72
2022/01/19 08:56:52;;;;;;;5.50;4.20;;;;;;;;;;5042160;28;20137;-71
2022/01/19 08:59:20;;;;;;;6.60;4.22;;;15.30;64.40;;;;;;5038996;28;20068;-72
2022/01/19 09:01:47;;;;;;;5.20;3.55;;;15.60;64.60;;;;;;5042876;28;20216;-72
2022/01/19 09:04:14;;;;;;;6.88;4.07;;;14.80;63.90;;;;;;5040885;28;20073;-72
2022/01/19 09:06:41;;;;;;;5.63;3.60;;;14.70;59.50;;;;;;5042997;28;20076;-72
2022/01/19 09:09:07;;;;;;;5.47;3.78;;;15.00;64.10;;;;;;5028824;28;20049;-71
2022/01/19 09:11:34;;;;;;;5.95;3.42;;;15.40;64.10;;;;;;5038702;28;20048;-72
2022/01/19 09:14:02;;;;;;;5.13;3.65;;;15.40;62.90;;;;;;5036468;28;20149;-72
2022/01/19 09:16:30;;;;;;;5.38;3.75;;;15.40;60.30;;;;;;5033085;28;20409;-71
2022/01/19 09:18:57;;;;;;;4.80;3.58;;;15.60;59.90;;;;;;5039067;28;20128;-71
2022/01/19 09:21:24;;;;;;;7.10;3.72;;;15.40;64.30;;;;;;5039088;28;20132;-71
2022/01/19 09:23:51;;;;;;;4.40;3.38;;;;;;;;;;5042445;28;20123;-73
2022/01/19 09:26:17;;;;;;;5.57;3.63;;;14.60;62.40;;;;;;5039371;28;20125;-70
2022/01/19 09:28:44;;;;;;;4.63;3.33;;;15.10;64.20;;;;;;5032049;28;20063;-71
2022/01/19 09:31:12;;;;;;;6.95;3.58;;;15.50;64.20;;;;;;5031725;28;20059;-71
2022/01/19 09:33:43;;;;;;;4.20;3.38;;;15.50;57.00;;;;;;5033078;28;20064;-70
2022/01/19 09:36:30;;;;;;;6.07;3.50;;;15.70;64.80;;;;;;5037487;28;20110;-70
2022/01/19 09:38:57;;;;;;;5.07;3.30;;;;;;;;;;5050694;28;20490;-70
2022/01/19 09:41:24;;;;;;;5.35;3.60;;;;;;;;;;5050921;28;20425;-69
2022/01/19 09:43:50;;;;;;;4.72;3.53;;;15.60;64.20;;;;;;5051469;28;20060;-69
2022/01/19 09:46:17;;;;;;;8.38;3.88;;;15.30;64.40;;;;;;5051693;28;20570;-72
2022/01/19 09:48:45;;;;;;;5.47;3.92;;;16.40;60.20;;;;;;5050280;28;20067;-71
2022/01/19 09:51:14;;;;;;;4.60;3.90;;;15.50;60.50;;;;;;5051754;28;20410;-71
2022/01/19 09:53:40;;;;;;;5.75;4.00;;;15.60;64.10;;;;;;5050719;28;20063;-72
2022/01/19 09:56:07;;;;;;;7.70;4.47;;;15.50;64.40;;;;;;5052446;28;20139;-72
2022/01/19 09:58:34;;;;;;;8.63;3.72;;;;;;;;;;5051209;28;20144;-70
2022/01/19 10:01:01;;;;;;;5.13;3.47;;;15.10;64.10;;;;;;5051373;28;20135;-72
2022/01/19 10:03:28;;;;;;;5.82;3.95;;;15.60;64.00;;;;;;5048496;28;20144;-72
2022/01/19 10:06:07;;;;;;;5.63;3.75;;;15.20;63.80;;;;;;5030928;28;20128;-72
2022/01/19 10:08:36;;;;;;;5.35;3.50;;;15.50;56.60;;;;;;5031323;28;20068;-71
2022/01/19 10:11:13;;;;;;;6.05;3.75;;;15.50;63.90;;;;;;5036182;28;20456;-72
2022/01/19 10:19:16;;;;;;;7.17;4.07;;;15.40;63.00;;;;;;5031378;28;20045;-71
2022/01/19 10:22:09;;;;;;;4.72;3.70;;;15.50;56.60;;;;;;5043745;28;20059;-72
2022/01/19 10:24:38;;;;;;;6.20;4.00;;;15.50;64.20;;;;;;5050912;28;20048;-72
2022/01/19 10:27:32;;;;;;;5.68;3.38;;;15.90;61.20;;;;;;5035155;28;20128;-72
2022/01/19 10:30:13;;;;;;;5.47;3.70;;;15.60;64.20;;;;;;5028684;28;20081;-72
2022/01/19 10:32:41;;;;;;;5.47;3.70;;;15.10;63.90;;;;;;5030771;28;20170;-72
2022/01/19 10:35:13;;;;;;;5.03;3.53;;;15.60;58.60;;;;;;5030884;28;20136;-71
2022/01/19 10:37:41;;;;;;;4.57;3.50;;;15.80;63.90;;;;;;5035745;28;20216;-72
2022/01/19 10:40:13;;;;;;;7.40;4.30;;;16.40;64.30;;;;;;5030998;28;20088;-72
2022/01/19 10:42:40;;;;;;;5.10;3.42;;;15.30;57.10;;;;;;5031703;28;20128;-72
2022/01/19 10:45:08;;;;;;;5.30;3.90;;;15.50;64.00;;;;;;5030557;28;20125;-72
2022/01/19 10:47:39;;;;;;;7.43;3.83;;;15.60;64.20;;;;;;5030826;28;20156;-72
2022/01/19 10:50:07;;;;;;;5.70;3.50;;;15.50;61.80;;;;;;5031873;28;20132;-71
2022/01/19 10:52:34;;;;;;;6.45;3.80;;;15.50;56.60;;;;;;5047411;28;20053;-71
2022/01/19 10:55:03;;;;;;;6.00;3.75;;;15.40;64.10;;;;;;5030747;28;20081;-72
2022/01/19 10:57:31;;;;;;;5.18;3.72;;;14.90;63.70;;;;;;5046969;28;20076;-72
2022/01/19 11:00:19;;;;;;;6.20;3.53;;;15.50;59.10;;;;;;5049194;28;20168;-72
2022/01/19 11:02:47;;;;;;;5.60;3.92;;;15.40;63.50;;;;;;5050565;28;20056;-72
2022/01/19 11:05:13;;;;;;;6.63;4.03;;;15.50;64.30;;;;;;5050116;28;20135;-73
2022/01/19 11:07:40;;;;;;;7.50;4.53;;;15.60;64.00;;;;;;5050491;28;20243;-72
2022/01/19 11:10:11;;;;;;;8.73;4.40;;;15.40;64.30;;;;;;5050207;28;20473;-72
2022/01/19 11:12:45;;;;;;;7.97;4.07;;;15.70;57.00;;;;;;5050392;28;20140;-71
2022/01/19 11:15:12;;;;;;;8.18;4.63;;;15.60;64.30;;;;;;5050532;28;20059;-72
2022/01/19 11:17:39;;;;;;;5.07;3.75;;;15.50;63.90;;;;;;5050081;28;20061;-72
2022/01/19 11:20:07;;;;;;;6.72;3.88;;;15.60;56.90;;;;;;5043026;28;20125;-70
2022/01/19 11:22:40;;;;;;;6.18;4.10;;;15.60;57.30;;;;;;5031377;28;20045;-70
2022/01/19 11:25:14;;;;;;;10.60;5.38;;;15.60;64.10;;;;;;5031951;28;20073;-70
2022/01/19 11:27:42;;;;;;;16.08;5.88;;;15.60;64.10;;;;;;5034230;28;20137;-71
2022/01/19 11:30:11;;;;;;;12.88;5.78;;;15.60;56.70;;;;;;5034078;28;20136;-71
2022/01/19 11:32:37;;;;;;;8.20;5.30;;;15.70;64.00;;;;;;5035255;28;20459;-71
2022/01/19 11:35:06;;;;;;;15.75;5.75;;;;;;;;;;5035201;28;20140;-73
2022/01/19 11:37:34;;;;;;;11.10;5.15;;;15.50;56.70;;;;;;5041865;28;20538;-72
2022/01/19 11:40:03;;;;;;;9.13;5.72;;;16.10;60.90;;;;;;5033725;28;20081;-72
2022/01/19 11:42:31;;;;;;;10.15;5.60;;;15.90;64.10;;;;;;5033860;28;20156;-73
2022/01/19 11:44:58;;;;;;;8.82;5.18;;;15.80;64.00;;;;;;5050643;28;20063;-73
2022/01/19 11:47:28;;;;;;;12.88;5.53;;;15.80;56.70;;;;;;5033582;28;20125;-71
2022/01/19 11:49:56;;;;;;;10.75;5.78;;;15.50;56.50;;;;;;5055442;28;20053;-72
2022/01/19 11:52:24;;;;;;;10.32;4.88;;;17.90;57.70;;;;;;5043638;28;20098;-72
2022/01/19 11:54:52;;;;;;;9.13;5.30;;;16.00;58.40;;;;;;5041349;28;20510;-72
2022/01/19 11:57:22;;;;;;;8.38;4.70;;;15.80;56.50;;;;;;5042214;28;20111;-72
2022/01/19 12:00:09;;;;;;;10.57;5.53;;;15.80;63.80;;;;;;5043156;28;20053;-73
2022/01/19 12:02:38;;;;;;;9.23;5.28;;;15.70;63.70;;;;;;5044445;28;20053;-73
2022/01/19 12:05:28;;;;;;;10.32;5.15;;;15.70;64.00;;;;;;5043593;28;20135;-73
2022/01/19 12:07:57;;;;;;;8.75;5.05;;;15.70;63.80;;;;;;5044164;28;20510;-73
2022/01/19 12:10:42;;;;;;;6.93;4.88;;;15.70;61.90;;;;;;5041376;28;20061;-73
2022/01/19 12:13:25;;;;;;;;;;;15.70;57.00;;;;;;5043774;28;20053;-72
2022/01/19 12:15:57;;;;;;;9.13;4.50;;;15.80;64.30;;;;;;5043403;28;20011;-73
2022/01/19 12:18:45;;;;;;;7.22;4.70;;;14.80;62.40;;;;;;5047140;28;20064;-73
2022/01/19 12:21:12;;;;;;;10.13;5.00;;;15.70;62.40;;;;;;5040907;28;20079;-73
2022/01/19 12:23:40;;;;;;;7.90;4.57;;;16.50;64.30;;;;;;5052523;28;20084;-73
2022/01/19 12:26:07;;;;;;;7.45;5.03;;;15.10;63.80;;;;;;5045585;28;20049;-73
2022/01/19 12:28:45;;;;;;;8.18;5.22;;;15.70;56.60;;;;;;5034187;28;20568;-73
2022/01/19 12:31:32;;;;;;;8.55;5.53;;;15.70;63.90;;;;;;5039655;28;20080;-73
2022/01/19 12:34:20;;;;;;;11.65;5.60;;;15.70;63.90;;;;;;5035531;28;20109;-73
2022/01/19 12:36:51;;;;;;;7.78;5.20;;;15.60;61.00;;;;;;5039218;28;20095;-73
2022/01/19 12:39:39;;;;;;;9.70;5.40;;;16.40;58.10;;;;;;5052681;28;20136;-73
2022/01/19 12:42:07;;;;;;;11.98;6.30;;;14.90;63.60;;;;;;5053125;28;20144;-73
2022/01/19 12:44:42;;;;;;;7.88;5.85;;;15.60;56.70;;;;;;5052989;28;20099;-72
2022/01/19 12:47:46;;;;;;;9.98;6.35;;;14.80;63.50;;;;;;5052343;28;20057;-73
2022/01/19 12:50:42;;;;;;;8.65;5.97;;;15.40;62.20;;;;;;5036058;28;20470;-73
2022/01/19 12:53:10;;;;;;;;;;;15.60;57.20;;;;;;5052921;28;20551;-73
2022/01/19 12:55:38;;;;;;;10.05;5.95;;;15.60;64.40;;;;;;5052635;28;19927;-73
2022/01/19 12:58:10;;;;;;;12.90;6.85;;;15.60;63.90;;;;;;5052576;28;20140;-73
2022/01/19 13:00:37;;;;;;;9.57;6.25;;;15.00;57.90;;;;;;5052519;28;20131;-73
2022/01/19 13:03:14;;;;;;;10.70;6.47;;;15.20;64.10;;;;;;5052273;28;20553;-73
2022/01/19 13:05:46;;;;;;;9.70;6.13;;;15.50;56.80;;;;;;5052275;28;20057;-72
2022/01/19 13:08:13;;;;;;;9.60;6.22;;;;;;;;;;5052167;28;20055;-72
2022/01/19 13:10:45;;;;;;;11.93;6.70;;;15.50;64.30;;;;;;5052553;28;20053;-73
2022/01/19 13:13:14;;;;;;;10.52;6.43;;;15.50;64.00;;;;;;5049414;28;20080;-74
2022/01/19 13:15:41;;;;;;;10.70;6.70;;;15.50;64.00;;;;;;5041903;28;20045;-74
2022/01/19 13:18:08;;;;;;;11.25;6.95;;;15.50;64.30;;;;;;5034768;28;20046;-73
2022/01/19 13:20:36;;;;;;;8.63;6.25;;;15.50;56.80;;;;;;5038044;28;20076;-72
2022/01/19 13:23:04;;;;;;;10.40;6.38;;;;;;;;;;5040954;28;20136;-72
2022/01/19 13:25:33;;;;;;;10.20;6.90;;;15.60;64.00;;;;;;5036054;28;20049;-73
2022/01/19 13:28:00;;;;;;;10.45;6.80;;;15.40;57.10;;;;;;5038816;28;20114;-72
2022/01/19 13:30:28;;;;;;;10.02;6.28;;;15.50;64.00;;;;;;5042492;28;20108;-74
2022/01/19 13:32:56;;;;;;;10.98;6.82;;;;;;;;;;5040494;28;20071;-73
2022/01/19 13:35:23;;;;;;;9.13;6.30;;;16.10;64.20;;;;;;5041925;28;20136;-73
2022/01/19 13:37:55;;;;;;;8.07;6.18;;;15.60;59.90;;;;;;5040879;28;20073;-72
2022/01/19 13:40:23;;;;;;;11.15;6.65;;;15.50;56.70;;;;;;5035551;28;20064;-72
2022/01/19 13:42:51;;;;;;;11.68;7.00;;;15.40;63.80;;;;;;5039288;28;20095;-72
2022/01/19 13:45:27;;;;;;;10.05;6.93;;;15.60;62.70;;;;;;5039202;28;20046;-73
2022/01/19 13:48:06;;;;;;;9.88;6.53;;;15.30;56.60;;;;;;5043885;28;20519;-72
2022/01/19 13:50:33;;;;;;;9.27;6.40;;;15.60;62.40;;;;;;5043956;28;20057;-72
2022/01/19 13:53:01;;;;;;;10.60;6.82;;;15.70;63.90;;;;;;5031502;28;20492;-70
2022/01/19 13:55:28;;;;;;;10.75;6.57;;;;;;;;;;5032824;28;20129;-70
2022/01/19 13:58:10;;;;;;;10.52;6.85;;;16.40;64.30;;;;;;5038654;28;20124;-70
2022/01/19 14:00:37;;;;;;;10.75;6.90;;;15.10;60.90;;;;;;5032539;28;20103;-69
2022/01/19 14:03:06;;;;;;;10.50;6.85;;;;;;;;;;5037221;28;20518;-71
2022/01/19 14:05:41;;;;;;;12.93;7.63;;;15.70;63.70;;;;;;5042561;28;20057;-70
2022/01/19 14:08:09;;;;;;;10.38;7.45;;;15.60;64.30;;;;;;5052369;28;20385;-72
2022/01/19 14:10:46;;;;;;;9.85;6.85;;;16.40;64.40;;;;;;5051094;28;20053;-72
2022/01/19 14:13:27;;;;;;;11.20;6.60;;;15.80;63.90;;;;;;5050961;28;20048;-72
2022/01/19 14:15:55;;;;;;;9.85;6.80;;;16.50;64.60;;;;;;5050575;28;20139;-72
2022/01/19 14:18:22;;;;;;;12.32;6.80;;;16.20;64.40;;;;;;5051298;28;20494;-72
2022/01/19 14:21:07;;;;;;;9.85;6.72;;;15.70;56.70;;;;;;5037701;28;20107;-72
2022/01/19 14:23:35;;;;;;;9.00;6.40;;;14.80;63.70;;;;;;5047762;28;20061;-72